createdAt,value
2023-01-17T00:01:42.839Z,90349.53
2023-01-17T00:04:29.699Z,90340.91
2023-01-17T00:07:15.079Z,90347.28
2023-01-17T00:09:54.077Z,90351.63
2023-01-17T00:12:21.137Z,90366.00
2023-01-17T00:14:48.304Z,90328.84
2023-01-17T00:17:15.365Z,90357.31
2023-01-17T00:20:00.552Z,90349.03
2023-01-17T00:22:47.356Z,90342.13
2023-01-17T00:25:37.216Z,90311.28
2023-01-17T00:28:04.295Z,90356.69
2023-01-17T00:30:31.285Z,90338.56
2023-01-17T00:32:57.940Z,90328.56
2023-01-17T00:35:25.374Z,90344.38
2023-01-17T00:38:05.400Z,90328.19
2023-01-17T00:40:33.121Z,90335.63
2023-01-17T00:43:18.273Z,90334.09
2023-01-17T00:46:03.707Z,90326.44
2023-01-17T00:48:49.225Z,90316.84
2023-01-17T00:51:34.638Z,90321.38
2023-01-17T00:54:19.703Z,90311.84
2023-01-17T00:57:04.796Z,90316.91
2023-01-17T00:59:50.186Z,90320.78
2023-01-17T01:02:35.499Z,90333.03
2023-01-17T01:05:21.270Z,90310.56
2023-01-17T01:08:06.325Z,90323.31
2023-01-17T01:10:51.713Z,90335.56
2023-01-17T01:13:37.423Z,90331.22
2023-01-17T01:16:23.113Z,90363.78
2023-01-17T01:19:08.261Z,90379.25
2023-01-17T01:21:53.525Z,90351.19
2023-01-17T01:24:38.869Z,90358.13
2023-01-17T01:27:24.345Z,90357.16
2023-01-17T01:30:09.391Z,90366.16
2023-01-17T01:32:54.555Z,90380.13
2023-01-17T01:35:24.058Z,90367.53
2023-01-17T01:37:50.892Z,90356.34
2023-01-17T01:40:17.768Z,90355.81
2023-01-17T01:42:55.352Z,90355.81
2023-01-17T01:45:29.856Z,90353.88
2023-01-17T01:48:20.210Z,90362.34
2023-01-17T01:50:46.901Z,90338.63
2023-01-17T01:53:13.541Z,90344.06
2023-01-17T01:55:40.758Z,90332.50
2023-01-17T01:58:13.373Z,90330.88
2023-01-17T02:00:41.051Z,90327.72
2023-01-17T02:03:13.468Z,90325.19
2023-01-17T02:05:42.471Z,90323.88
2023-01-17T02:08:11.608Z,90318.66
2023-01-17T02:10:39.480Z,90325.78
2023-01-17T02:13:06.488Z,90300.59
2023-01-17T02:15:54.163Z,90298.81
2023-01-17T02:18:51.729Z,90288.72
2023-01-17T02:21:28.300Z,90284.88
2023-01-17T02:24:07.241Z,90289.34
2023-01-17T02:27:01.854Z,90271.81
2023-01-17T02:29:28.228Z,90276.53
2023-01-17T02:32:08.774Z,90265.72
2023-01-17T02:34:44.578Z,90265.81
2023-01-17T02:37:18.704Z,90293.22
2023-01-17T02:39:54.461Z,90272.03
2023-01-17T02:42:22.058Z,90285.53
2023-01-17T02:44:48.807Z,90298.50
2023-01-17T02:47:29.181Z,90275.56
2023-01-17T02:50:12.834Z,90259.22
2023-01-17T02:52:48.335Z,90263.22
2023-01-17T02:55:23.947Z,90260.78
2023-01-17T02:58:05.748Z,90264.09
2023-01-17T03:00:32.360Z,90261.13
2023-01-17T03:03:05.279Z,90267.47
2023-01-17T03:05:36.560Z,90261.22
2023-01-17T03:08:03.274Z,90266.31
2023-01-17T03:10:33.829Z,90264.97
2023-01-17T03:13:00.558Z,90262.25
2023-01-17T03:15:27.230Z,90249.00
2023-01-17T03:17:55.318Z,90240.94
2023-01-17T03:20:22.750Z,90233.56
2023-01-17T03:22:49.469Z,90229.81
2023-01-17T03:25:16.683Z,90227.16
2023-01-17T03:27:43.319Z,90226.78
2023-01-17T03:30:10.416Z,90231.00
2023-01-17T03:32:37.103Z,90246.50
2023-01-17T03:35:03.844Z,90253.00
2023-01-17T03:37:30.458Z,90245.72
2023-01-17T03:39:57.168Z,90245.50
2023-01-17T03:42:23.958Z,90231.41
2023-01-17T03:44:50.551Z,90221.38
2023-01-17T03:47:17.156Z,90239.31
2023-01-17T03:49:43.788Z,90263.69
2023-01-17T03:52:10.435Z,90261.59
2023-01-17T03:54:37.143Z,90254.00
2023-01-17T03:57:03.793Z,90246.25
2023-01-17T03:59:30.363Z,90251.38
2023-01-17T04:01:57.107Z,90246.56
2023-01-17T04:04:23.844Z,90253.25
2023-01-17T04:06:50.503Z,90249.63
2023-01-17T04:09:17.088Z,90241.28
2023-01-17T04:11:43.714Z,90247.69
2023-01-17T04:14:10.437Z,90235.97
2023-01-17T04:16:37.189Z,90236.56
2023-01-17T04:19:03.863Z,90238.69
2023-01-17T04:21:30.492Z,90230.81
2023-01-17T04:23:57.171Z,90253.53
2023-01-17T04:26:23.798Z,90272.84
2023-01-17T04:28:50.518Z,90260.97
2023-01-17T04:31:17.490Z,90282.47
2023-01-17T04:33:44.257Z,90282.16
2023-01-17T04:36:10.914Z,90294.38
2023-01-17T04:38:37.600Z,90308.19
2023-01-17T04:41:04.331Z,90315.09
2023-01-17T04:43:30.968Z,90309.31
2023-01-17T04:45:58.201Z,90301.44
2023-01-17T04:48:24.987Z,90300.97
2023-01-17T04:50:51.647Z,90281.78
2023-01-17T04:53:18.441Z,90293.97
2023-01-17T04:55:46.274Z,90306.19
2023-01-17T04:58:12.901Z,90294.97
2023-01-17T05:00:39.557Z,90300.44
2023-01-17T05:03:07.132Z,90301.59
2023-01-17T05:05:33.760Z,90289.66
2023-01-17T05:08:00.363Z,90317.78
2023-01-17T05:10:27.043Z,90316.75
2023-01-17T05:12:57.442Z,90330.13
2023-01-17T05:15:24.038Z,90317.22
2023-01-17T05:17:51.864Z,90323.59
2023-01-17T05:20:19.117Z,90321.19
2023-01-17T05:22:47.368Z,90333.31
2023-01-17T05:25:14.051Z,90321.09
2023-01-17T05:27:40.788Z,90321.94
2023-01-17T05:30:07.876Z,90330.00
2023-01-17T05:32:34.539Z,90335.53
2023-01-17T05:35:02.543Z,90329.47
2023-01-17T05:37:29.132Z,90333.06
2023-01-17T05:39:55.824Z,90341.06
2023-01-17T05:42:22.526Z,90330.81
2023-01-17T05:44:49.159Z,90342.47
2023-01-17T05:47:15.757Z,90346.59
2023-01-17T05:49:45.098Z,90343.94
2023-01-17T05:52:12.604Z,90342.41
2023-01-17T05:54:39.347Z,90334.75
2023-01-17T05:57:06.073Z,90327.13
2023-01-17T05:59:37.353Z,90345.50
2023-01-17T06:02:04.254Z,90347.69
2023-01-17T06:04:30.938Z,90345.28
2023-01-17T06:06:57.606Z,90350.25
2023-01-17T06:09:24.252Z,90328.09
2023-01-17T06:11:50.891Z,90307.75
2023-01-17T06:14:17.529Z,90281.31
2023-01-17T06:16:44.152Z,90283.53
2023-01-17T06:19:10.771Z,90284.03
2023-01-17T06:21:37.494Z,90275.72
2023-01-17T06:24:04.512Z,90291.50
2023-01-17T06:26:31.326Z,90291.50
2023-01-17T06:28:57.975Z,90302.84
2023-01-17T06:31:24.653Z,90300.94
2023-01-17T06:33:51.386Z,90314.16
2023-01-17T06:36:18.049Z,90310.34
2023-01-17T06:38:44.691Z,90309.75
2023-01-17T06:41:11.332Z,90314.00
2023-01-17T06:43:37.950Z,90314.00
2023-01-17T06:46:04.739Z,90315.13
2023-01-17T06:48:31.419Z,90304.53
2023-01-17T06:50:58.363Z,90305.56
2023-01-17T06:53:24.937Z,90307.41
2023-01-17T06:55:52.640Z,90292.97
2023-01-17T06:58:19.327Z,90306.63
2023-01-17T07:00:46.090Z,90303.47
2023-01-17T07:03:17.568Z,90313.94
2023-01-17T07:05:44.232Z,90312.38
2023-01-17T07:08:10.964Z,90309.09
2023-01-17T07:10:37.608Z,90315.28
2023-01-17T07:13:04.247Z,90300.34
2023-01-17T07:15:30.883Z,90292.28
2023-01-17T07:17:57.519Z,90291.31
2023-01-17T07:20:24.251Z,90285.25
2023-01-17T07:22:50.986Z,90284.88
2023-01-17T07:25:17.935Z,90284.97
2023-01-17T07:27:44.623Z,90284.09
2023-01-17T07:30:11.957Z,90285.03
2023-01-17T07:32:38.842Z,90300.53
2023-01-17T07:35:06.734Z,90317.97
2023-01-17T07:37:33.354Z,90306.41
2023-01-17T07:40:02.519Z,90305.66
2023-01-17T07:42:29.290Z,90301.56
2023-01-17T07:44:56.034Z,90299.22
2023-01-17T07:47:24.775Z,90309.72
2023-01-17T07:49:51.416Z,90314.47
2023-01-17T07:52:18.348Z,90307.78
2023-01-17T07:54:45.132Z,90299.22
2023-01-17T07:57:12.643Z,90305.75
2023-01-17T07:59:39.297Z,90311.03
2023-01-17T08:02:06.177Z,90318.28
2023-01-17T08:04:35.262Z,90309.13
2023-01-17T08:07:02.143Z,90317.28
2023-01-17T08:09:28.749Z,90310.75
2023-01-17T08:11:55.489Z,90300.91
2023-01-17T08:14:22.230Z,90314.44
2023-01-17T08:16:48.979Z,90305.03
2023-01-17T08:19:16.757Z,90303.75
2023-01-17T08:21:43.431Z,90287.53
2023-01-17T08:24:13.815Z,90286.16
2023-01-17T08:26:40.738Z,90301.31
2023-01-17T08:29:07.453Z,90309.03
2023-01-17T08:31:34.845Z,90309.34
2023-01-17T08:34:01.535Z,90314.09
2023-01-17T08:36:28.916Z,90317.97
2023-01-17T08:38:55.698Z,90327.13
2023-01-17T08:41:22.509Z,90315.25
2023-01-17T08:43:49.460Z,90325.59
2023-01-17T08:46:16.219Z,90330.06
2023-01-17T08:48:43.131Z,90334.28
2023-01-17T08:51:10.178Z,90343.91
2023-01-17T08:53:36.875Z,90338.94
2023-01-17T08:56:04.269Z,90327.94
2023-01-17T08:58:31.330Z,90332.97
2023-01-17T09:01:02.954Z,90326.06
2023-01-17T09:03:30.642Z,90337.38
2023-01-17T09:06:02.292Z,90334.88
2023-01-17T09:08:28.964Z,90326.03
2023-01-17T09:10:55.607Z,90316.13
2023-01-17T09:13:22.252Z,90316.34
2023-01-17T09:15:48.933Z,90322.03
2023-01-17T09:18:15.624Z,90323.75
2023-01-17T09:20:42.255Z,90315.47
2023-01-17T09:23:08.915Z,90307.16
2023-01-17T09:25:35.521Z,90306.38
2023-01-17T09:28:02.168Z,90301.72
2023-01-17T09:30:28.861Z,90299.84
2023-01-17T09:32:55.601Z,90297.75
2023-01-17T09:35:22.171Z,90298.88
2023-01-17T09:37:50.647Z,90299.53
2023-01-17T09:40:19.641Z,90306.91
2023-01-17T09:42:46.575Z,90297.41
2023-01-17T09:45:16.430Z,90290.38
2023-01-17T09:47:47.688Z,90284.28
2023-01-17T09:50:23.431Z,90278.78
2023-01-17T09:52:50.185Z,90281.56
2023-01-17T09:55:17.281Z,90264.81
2023-01-17T09:57:46.915Z,90258.75
2023-01-17T10:00:44.023Z,90266.94
2023-01-17T10:03:28.889Z,90272.78
2023-01-17T10:06:22.888Z,90287.38
2023-01-17T10:09:19.923Z,90294.59
2023-01-17T10:11:49.265Z,90281.22
2023-01-17T10:14:51.270Z,90284.81
2023-01-17T10:17:45.389Z,90288.22
2023-01-17T10:20:34.934Z,90294.03
2023-01-17T10:23:04.799Z,90301.53
2023-01-17T10:25:43.004Z,90301.22
2023-01-17T10:28:14.071Z,90284.69
2023-01-17T10:30:48.932Z,90288.31
2023-01-17T10:33:22.433Z,90279.06
2023-01-17T10:36:04.224Z,90265.44
2023-01-17T10:38:35.949Z,90261.47
2023-01-17T10:41:14.456Z,90256.00
2023-01-17T10:43:49.846Z,90255.75
2023-01-17T10:46:19.599Z,90262.13
2023-01-17T10:48:47.286Z,90261.03
2023-01-17T10:51:16.587Z,90260.56
2023-01-17T10:54:53.820Z,90275.00
2023-01-17T10:57:24.769Z,90274.81
2023-01-17T10:59:52.140Z,90282.00
2023-01-17T11:02:26.055Z,90284.03
2023-01-17T11:04:54.635Z,90279.25
2023-01-17T11:07:28.599Z,90285.16
2023-01-17T11:09:56.586Z,90280.31
2023-01-17T11:12:33.968Z,90270.72
2023-01-17T11:15:09.482Z,90269.25
2023-01-17T11:17:43.764Z,90264.34
2023-01-17T11:20:22.832Z,90282.28
2023-01-17T11:23:04.169Z,90282.28
2023-01-17T11:25:33.965Z,90264.66
2023-01-17T11:28:19.172Z,90261.75
2023-01-17T11:30:59.065Z,90265.19
2023-01-17T11:33:45.067Z,90248.34
2023-01-17T11:36:16.248Z,90242.00
2023-01-17T11:39:02.928Z,90245.16
2023-01-17T11:41:33.909Z,90234.38
2023-01-17T11:44:00.929Z,90232.84
2023-01-17T11:46:30.504Z,90231.47
2023-01-17T11:48:59.670Z,90225.63
2023-01-17T11:51:34.121Z,90230.13
2023-01-17T11:54:10.742Z,90229.97
2023-01-17T11:56:37.523Z,90231.06
2023-01-17T11:59:13.144Z,90223.25
2023-01-17T12:01:47.319Z,90228.63
2023-01-17T12:04:23.009Z,90220.59
2023-01-17T12:07:28.754Z,90215.63
2023-01-17T12:10:08.228Z,90209.13
2023-01-17T12:12:59.623Z,90203.56
2023-01-17T12:15:42.168Z,90197.97
2023-01-17T12:18:19.131Z,90187.03
2023-01-17T12:20:52.242Z,90187.78
2023-01-17T12:23:51.025Z,90180.03
2023-01-17T12:26:23.930Z,90183.63
2023-01-17T12:28:59.219Z,90183.63
2023-01-17T12:31:46.327Z,90181.13
2023-01-17T12:34:27.360Z,90185.19
2023-01-17T12:36:55.342Z,90197.25
2023-01-17T12:39:26.102Z,90197.88
2023-01-17T12:42:20.539Z,90192.25
2023-01-17T12:44:57.951Z,90187.59
2023-01-17T12:47:24.707Z,90187.19
2023-01-17T12:49:57.956Z,90175.00
2023-01-17T12:52:43.298Z,90173.69
2023-01-17T12:55:14.338Z,90173.16
2023-01-17T12:57:43.197Z,90175.13
2023-01-17T13:00:23.716Z,90181.09
2023-01-17T13:03:32.865Z,90180.31
2023-01-17T13:05:59.540Z,90187.81
2023-01-17T13:08:36.322Z,90191.69
2023-01-17T13:11:39.078Z,90194.66
2023-01-17T13:14:08.320Z,90188.25
2023-01-17T13:16:42.250Z,90201.06
2023-01-17T13:19:44.020Z,90209.19
2023-01-17T13:22:17.384Z,90228.84
2023-01-17T13:24:55.701Z,90230.13
2023-01-17T13:27:59.869Z,90224.47
2023-01-17T13:30:43.443Z,90225.41
2023-01-17T13:33:28.258Z,90233.94
2023-01-17T13:36:01.895Z,90225.63
2023-01-17T13:38:55.211Z,90240.31
2023-01-17T13:41:38.707Z,90236.22
2023-01-17T13:44:24.587Z,90225.22
2023-01-17T13:47:32.041Z,90225.97
2023-01-17T13:49:59.396Z,90233.94
2023-01-17T13:52:26.023Z,90234.88
2023-01-17T13:54:56.414Z,90239.50
2023-01-17T13:57:28.548Z,90243.81
2023-01-17T13:59:56.925Z,90245.19
2023-01-17T14:02:32.642Z,90249.44
2023-01-17T14:05:05.265Z,90247.84
2023-01-17T14:07:31.926Z,90255.34
2023-01-17T14:09:58.548Z,90245.09
2023-01-17T14:12:28.057Z,90250.44
2023-01-17T14:14:56.693Z,90242.91
2023-01-17T14:17:25.514Z,90247.31
2023-01-17T14:20:02.869Z,90241.84
2023-01-17T14:22:33.414Z,90233.22
2023-01-17T14:25:03.120Z,90236.28
2023-01-17T14:27:34.718Z,90223.69
2023-01-17T14:30:02.633Z,90233.56
2023-01-17T14:32:33.582Z,90234.63
2023-01-17T14:35:00.307Z,90228.94
2023-01-17T14:37:32.929Z,90229.97
2023-01-17T14:40:00.230Z,90221.97
2023-01-17T14:42:30.759Z,90227.56
2023-01-17T14:45:05.561Z,90232.78
2023-01-17T14:47:34.242Z,90237.94
2023-01-17T14:50:36.862Z,90229.00
2023-01-17T14:53:18.282Z,90223.09
2023-01-17T14:55:47.897Z,90225.91
2023-01-17T14:58:17.908Z,90215.22
2023-01-17T15:00:44.939Z,90221.78
2023-01-17T15:03:14.486Z,90215.78
2023-01-17T15:05:41.922Z,90222.66
2023-01-17T15:08:13.965Z,90221.97
2023-01-17T15:10:46.755Z,90214.47
2023-01-17T15:13:13.990Z,90210.84
2023-01-17T15:15:42.833Z,90192.50
2023-01-17T15:18:15.140Z,90202.34
2023-01-17T15:20:42.285Z,90200.38
2023-01-17T15:23:18.291Z,90208.13
2023-01-17T15:25:48.767Z,90210.03
2023-01-17T15:28:15.476Z,90208.75
2023-01-17T15:31:09.228Z,90211.91
2023-01-17T15:33:43.978Z,90219.13
2023-01-17T15:36:17.169Z,90231.97
2023-01-17T15:38:49.544Z,90232.94
2023-01-17T15:41:16.392Z,90227.84
2023-01-17T15:43:43.399Z,90223.72
2023-01-17T15:46:21.249Z,90233.72
2023-01-17T15:48:48.203Z,90243.28
2023-01-17T15:51:16.272Z,90241.06
2023-01-17T15:53:43.020Z,90241.44
2023-01-17T15:56:31.209Z,90222.31
2023-01-17T15:59:20.650Z,90228.88
2023-01-17T16:01:57.112Z,90237.69
2023-01-17T16:04:26.977Z,90248.53
2023-01-17T16:06:53.577Z,90234.09
2023-01-17T16:09:23.628Z,90232.59
2023-01-17T16:11:50.285Z,90221.88
2023-01-17T16:14:17.783Z,90232.09
2023-01-17T16:16:53.377Z,90230.31
2023-01-17T16:19:21.468Z,90254.06
2023-01-17T16:21:48.538Z,90212.78
2023-01-17T16:24:15.428Z,90237.59
2023-01-17T16:26:42.173Z,90262.63
2023-01-17T16:29:10.230Z,90246.31
2023-01-17T16:31:36.920Z,90230.50
2023-01-17T16:34:03.639Z,90247.41
2023-01-17T16:36:30.389Z,90254.88
2023-01-17T16:38:57.127Z,90218.72
2023-01-17T16:41:23.784Z,90203.06
2023-01-17T16:43:58.325Z,90200.66
2023-01-17T16:46:26.048Z,90198.56
2023-01-17T16:48:53.035Z,90201.25
2023-01-17T16:51:19.580Z,90203.03
2023-01-17T16:53:46.228Z,90207.75
2023-01-17T16:56:14.746Z,90208.13
2023-01-17T16:58:41.460Z,90197.13
2023-01-17T17:01:12.237Z,90196.78
2023-01-17T17:03:38.995Z,90200.06
2023-01-17T17:06:05.828Z,90206.69
2023-01-17T17:08:33.950Z,90196.53
2023-01-17T17:11:13.161Z,90211.03
2023-01-17T17:13:44.025Z,90192.50
2023-01-17T17:16:18.388Z,90191.84
2023-01-17T17:18:45.243Z,90203.53
2023-01-17T17:21:12.624Z,90197.47
2023-01-17T17:23:39.548Z,90200.34
2023-01-17T17:26:06.347Z,90208.31
2023-01-17T17:28:33.054Z,90194.94
2023-01-17T17:31:07.655Z,90189.75
2023-01-17T17:33:35.057Z,90176.59
2023-01-17T17:36:03.516Z,90197.63
2023-01-17T17:38:30.171Z,90190.06
2023-01-17T17:41:07.807Z,90169.75
2023-01-17T17:43:41.272Z,90184.47
2023-01-17T17:46:08.140Z,90174.56
2023-01-17T17:48:35.699Z,90170.41
2023-01-17T17:51:02.444Z,90158.00
2023-01-17T17:53:29.120Z,90136.09
2023-01-17T17:55:56.136Z,90131.53
2023-01-17T17:58:23.185Z,90120.03
2023-01-17T18:00:50.884Z,90116.75
2023-01-17T18:03:17.553Z,90094.47
2023-01-17T18:05:46.837Z,90104.63
2023-01-17T18:08:13.581Z,90100.72
2023-01-17T18:10:41.038Z,90100.13
2023-01-17T18:13:07.786Z,90109.69
2023-01-17T18:15:34.428Z,90121.78
2023-01-17T18:18:01.084Z,90117.09
2023-01-17T18:20:27.827Z,90119.56
2023-01-17T18:22:54.490Z,90131.38
2023-01-17T18:25:21.148Z,90118.53
2023-01-17T18:27:47.979Z,90121.50
2023-01-17T18:30:14.750Z,90116.66
2023-01-17T18:32:42.731Z,90118.28
2023-01-17T18:35:09.692Z,90108.72
2023-01-17T18:37:36.283Z,90096.66
2023-01-17T18:40:03.050Z,90091.22
2023-01-17T18:42:30.140Z,90103.72
2023-01-17T18:44:56.782Z,90091.00
2023-01-17T18:47:23.841Z,90114.59
2023-01-17T18:49:53.715Z,90131.47
2023-01-17T18:52:20.924Z,90143.25
2023-01-17T18:54:47.754Z,90099.41
2023-01-17T18:57:14.419Z,90161.66
2023-01-17T18:59:42.167Z,90114.41
2023-01-17T19:02:09.562Z,90122.25
2023-01-17T19:04:37.796Z,90120.25
2023-01-17T19:07:04.507Z,90115.50
2023-01-17T19:09:32.161Z,90101.66
2023-01-17T19:12:00.060Z,90110.13
2023-01-17T19:14:26.859Z,90097.66
2023-01-17T19:16:53.589Z,90103.09
2023-01-17T19:19:20.209Z,90112.06
2023-01-17T19:21:46.847Z,90087.03
2023-01-17T19:24:14.287Z,90071.41
2023-01-17T19:26:41.871Z,90078.03
2023-01-17T19:29:08.733Z,90083.63
2023-01-17T19:31:43.156Z,90053.38
2023-01-17T19:34:10.297Z,90056.84
2023-01-17T19:36:37.747Z,90045.03
2023-01-17T19:39:06.515Z,90055.88
2023-01-17T19:41:34.447Z,90042.31
2023-01-17T19:44:03.289Z,90045.22
2023-01-17T19:46:29.991Z,90031.91
2023-01-17T19:48:57.045Z,90028.25
2023-01-17T19:51:24.487Z,90036.19
2023-01-17T19:53:51.395Z,90018.38
2023-01-17T19:56:20.072Z,90019.94
2023-01-17T19:58:46.963Z,90027.44
2023-01-17T20:01:32.623Z,90033.50
2023-01-17T20:04:00.114Z,90019.75
2023-01-17T20:06:28.977Z,90013.53
2023-01-17T20:08:55.861Z,90010.22
2023-01-17T20:11:23.711Z,90012.78
2023-01-17T20:13:55.126Z,90031.53
2023-01-17T20:16:22.230Z,90030.97
2023-01-17T20:18:49.377Z,90025.03
2023-01-17T20:21:17.643Z,90017.22
2023-01-17T20:23:46.922Z,90023.75
2023-01-17T20:26:14.764Z,90022.00
2023-01-17T20:28:42.230Z,90034.34
2023-01-17T20:31:12.710Z,90046.88
2023-01-17T20:33:43.192Z,90030.59
2023-01-17T20:36:14.919Z,90022.06
2023-01-17T20:38:45.089Z,90031.28
2023-01-17T20:41:24.689Z,90042.28
2023-01-17T20:43:55.871Z,90015.00
2023-01-17T20:46:23.934Z,90020.06
2023-01-17T20:48:51.853Z,90035.38
2023-01-17T20:51:18.726Z,90030.47
2023-01-17T20:53:46.057Z,90027.03
2023-01-17T20:56:14.011Z,90021.94
2023-01-17T20:58:40.979Z,90020.56
2023-01-17T21:01:11.453Z,90017.13
2023-01-17T21:03:38.793Z,90026.13
2023-01-17T21:06:09.057Z,90034.72
2023-01-17T21:08:37.130Z,90052.50
2023-01-17T21:11:04.838Z,90037.00
2023-01-17T21:13:31.830Z,90051.28
2023-01-17T21:15:58.582Z,90036.63
2023-01-17T21:18:25.872Z,90045.75
2023-01-17T21:20:52.717Z,90046.84
2023-01-17T21:23:20.179Z,90030.19
2023-01-17T21:25:55.500Z,90014.50
2023-01-17T21:28:26.355Z,90005.34
2023-01-17T21:30:53.375Z,90000.88
2023-01-17T21:33:20.635Z,90004.03
2023-01-17T21:35:47.444Z,90013.19
2023-01-17T21:38:14.403Z,90010.72
2023-01-17T21:40:41.615Z,89993.88
2023-01-17T21:43:08.255Z,90005.03
2023-01-17T21:45:38.691Z,89981.97
2023-01-17T21:48:06.778Z,90009.69
2023-01-17T21:50:34.020Z,89997.03
2023-01-17T21:53:00.843Z,90006.63
2023-01-17T21:55:45.954Z,89998.44
2023-01-17T21:58:35.169Z,90003.44
2023-01-17T22:01:11.171Z,90011.25
2023-01-17T22:03:37.955Z,89988.88
2023-01-17T22:06:04.964Z,89998.84
2023-01-17T22:08:37.894Z,90010.53
2023-01-17T22:11:08.728Z,90007.56
2023-01-17T22:13:35.710Z,90021.50
2023-01-17T22:16:03.647Z,90007.38
2023-01-17T22:18:30.732Z,90009.44
2023-01-17T22:20:57.366Z,90000.84
2023-01-17T22:23:24.032Z,90012.28
2023-01-17T22:25:50.698Z,90020.25
2023-01-17T22:28:17.414Z,90038.75
2023-01-17T22:30:44.159Z,90041.56
2023-01-17T22:33:10.867Z,90029.00
2023-01-17T22:35:37.514Z,90047.84
2023-01-17T22:38:04.239Z,90046.91
2023-01-17T22:40:32.664Z,90036.22
2023-01-17T22:42:59.537Z,90043.75
2023-01-17T22:45:27.341Z,90023.00
2023-01-17T22:47:54.112Z,90035.69
2023-01-17T22:50:20.780Z,90026.34
2023-01-17T22:52:47.396Z,90022.88
2023-01-17T22:55:14.223Z,89983.72
2023-01-17T22:57:43.956Z,89991.41
2023-01-17T23:00:14.582Z,90002.56
2023-01-17T23:02:41.913Z,89997.38
2023-01-17T23:05:09.974Z,89965.09
2023-01-17T23:07:43.764Z,89984.38
2023-01-17T23:10:33.915Z,90002.88
2023-01-17T23:13:00.565Z,90000.44
2023-01-17T23:15:46.054Z,89996.09
2023-01-17T23:18:31.378Z,90008.13
2023-01-17T23:20:58.079Z,90014.72
2023-01-17T23:23:24.653Z,90011.47
2023-01-17T23:25:51.351Z,90015.16
2023-01-17T23:28:20.927Z,90000.88
2023-01-17T23:30:48.177Z,89989.06
2023-01-17T23:33:16.076Z,89992.63
2023-01-17T23:35:44.325Z,89992.31
2023-01-17T23:38:29.025Z,89988.63
2023-01-17T23:41:24.768Z,89992.47
2023-01-17T23:43:58.128Z,89982.16
2023-01-17T23:46:25.466Z,89980.78
2023-01-17T23:48:52.263Z,89990.84
2023-01-17T23:51:19.003Z,89967.47
2023-01-17T23:53:45.704Z,89994.75
2023-01-17T23:56:17.353Z,89985.03
2023-01-17T23:58:44.232Z,89988.94
